Argenta, Texas
Current Conditions -  °F | °C
As of 2:55 PM on Sunday 23 Nov 2014 (Local Time) from KRBO Reporting Station
Clear Clear  
Wind Chill: 83°   Ceiling: Unl
Heat Index: 83°   Visibility: 10mi
Dew Point: 57°   Wind: 10mph
Humidity: 41%   Direction: 200°SSW
Pressure: 29.61"   Gusts: NA
Location:  28.0654°N, 97.7489°W
Report Text: KRBO 232055Z AUTO 20009KT 10SM CLR 28/14 A2961 RMK AO2 T02820139
Loading
Personal Weather Stations






























Interactive Weather Map New forecast layout! Learn more

10-Day Weather Forecast

Advertisements
Track Severe Weather on mobile